• Join FlightAware (Why Join?)
  • Login
  • US Flag 
02:03PM EDT


 

Airport Tracker/Info


-or-


 

Live Flight TrackerFlight Track Log ✈ SWA259 ✈ 29-Aug-2013 ✈ KCLE - KBWI

Flight Track Log - Related Links

Times and Time Zones

All times are in EDT time to prevent confusion due to time zone crossing. See the SWA259 flight status page for this flight to view local times or setup timezone preferences in your user account.

Time Position Orientation Groundspeed Altitude Reporting Facility
EDT Latitude Longitude Course Direction KTS MPH feet Rate Location/Type
06:31AM 41.4153 -81.8319 86° East 157 181 2,000  Level Cleveland Center
06:32AM 41.4181 -81.7739 86° East 216 249 4,100 2,460 Climbing Cleveland Center
06:33AM 41.3936 -81.7208 122° Southeast 249 287 6,000 3,000 Climbing Cleveland Center
06:34AM 41.3525 -81.6481 127° Southeast 267 307 9,300 3,240 Climbing Cleveland Center
06:35AM 41.2969 -81.5586 130° Southeast 285 328 12,500 3,180 Climbing Cleveland Center
06:36AM 41.2058 -81.5078 157° South 327 376 15,700 3,240 Climbing Cleveland Center
06:37AM 41.0958 -81.4483 158° South 362 417 19,000 3,000 Climbing Cleveland Center
06:38AM 40.9961 -81.3864 155° Southeast 388 447 21,800 2,700 Climbing Cleveland Center
06:39AM 40.8881 -81.3247 157° South 407 468 24,400 2,400 Climbing Cleveland Center
06:40AM 40.7739 -81.2575 156° South 430 495 26,600 1,800 Climbing Cleveland Center
06:41AM 40.6533 -81.1878 156° South 462 532 28,100 1,200 Climbing Cleveland Center
06:42AM 40.5683 -81.0833 137° Southeast 471 542 29,000 420 Climbing Cleveland Center
06:43AM 40.5022 -80.9325 120° Southeast 458 527 29,000  Level Cleveland Center
06:44AM 40.4358 -80.7794 120° Southeast 473 544 29,000  Level Cleveland Center
06:45AM 40.3672 -80.6239 120° Southeast 479 551 29,000  Level Cleveland Center
06:46AM 40.2986 -80.4742 121° Southeast 484 557 29,000  Level Cleveland Center
06:47AM 40.2211 -80.3083 121° Southeast 484 557 29,000  Level Cleveland Center
06:48AM 40.1519 -80.1594 121° Southeast 490 564 29,000  Level Cleveland Center
06:49AM 40.0825 -80.0050 120° Southeast 490 564 29,000  Level Cleveland Center
06:51AM 39.9575 -79.7247 120° Southeast 467 537 29,000  Level Washington Center
06:52AM 39.8875 -79.5719 121° Southeast 478 550 29,000  Level Washington Center
06:53AM 39.8175 -79.4222 121° Southeast 485 558 29,000 -540 Level Washington Center
06:54AM 39.7492 -79.2728 121° Southeast 490 564 28,000 -1,620 Descending Washington Center
06:55AM 39.6806 -79.1292 122° Southeast 484 557 25,800 -1,620 Descending Washington Center
06:56AM 39.6389 -78.9814 110° East 460 529 24,800 -960 Descending Washington Center
06:57AM 39.6072 -78.8481 107° East 439 505 23,900 -960 Descending Washington Center
06:58AM 39.5756 -78.7011 106° East 434 499 22,900 -900 Descending Washington Center
06:59AM 39.5358 -78.5433 108° East 423 487 22,100 -1,620 Descending Washington Center
07:00AM 39.5139 -78.4214 103° East 411 473 19,700 -2,340 Descending Washington Center
07:01AM 39.4856 -78.2939 106° East 396 456 17,600 -2,220 Descending Washington Center
07:02AM 39.4531 -78.1611 108° East 382 440 15,300 -1,320 Descending Washington Center
07:03AM 39.4283 -78.0367 104° East 369 425 15,000 -180 Descending Washington Center
07:04AM 39.4225 -77.9100 93° East 358 412 15,000  Level Washington Center
07:05AM 39.4292 -77.7867 86° East 348 400 15,000  Level Washington Center
07:06AM 39.4333 -77.6606 88° East 348 400 15,000 -720 Level Washington Center
07:07AM 39.4375 -77.5369 87° East 348 400 13,600 -1,860 Descending Washington Center
07:08AM 39.4436 -77.4108 86° East 348 400 11,400 -1,320 Descending Washington Center
07:09AM 39.4539 -77.2822 84° East 343 395 11,000 -540 Descending Washington Center
07:10AM 39.4700 -77.1669 80° East 331 381 10,400 -900 Descending Washington Center
07:11AM 39.4833 -77.0333 83° East 319 367 9,100 -720 Descending Potomac TRACON
07:12AM 39.5333 -76.9500 52° Northeast 291 335 8,900 -900 Descending Potomac TRACON
07:13AM 39.5667 -76.8833 57° Northeast 277 319 7,400 -1,680 Descending Potomac TRACON
07:14AM 39.5833 -76.8000 75° East 271 312 5,900 -1,320 Descending Potomac TRACON
07:15AM 39.5500 -76.7167 117° Southeast 268 308 5,000 -480 Descending Potomac TRACON
07:16AM 39.5167 -76.6333 117° Southeast 256 295 5,000 -120 Level Potomac TRACON
07:17AM 39.4667 -76.5833 142° Southeast 267 307 4,800 -540 Descending Potomac TRACON
07:18AM 39.4000 -76.5333 150° Southeast 263 303 4,000 -420 Descending Potomac TRACON
07:19AM 39.3333 -76.5000 159° South 261 300 4,000  Level Potomac TRACON
07:20AM 39.2833 -76.4500 142° Southeast 258 297 4,000  Level Potomac TRACON
07:21AM 39.2167 -76.4167 159° South 232 267 4,000  Level Potomac TRACON
07:22AM 39.1500 -76.4167 180° South 229 264 4,000  Level Potomac TRACON
07:23AM 39.1000 -76.4000 165° South 230 265 4,000  Level Potomac TRACON
07:24AM 39.0500 -76.4333 207° Southwest 246 283 4,000 -240 Level Potomac TRACON
07:25AM 39.0167 -76.4833 229° Southwest 209 241 3,600 -540 Descending Potomac TRACON
07:26AM 39.0333 -76.5333 293° West 192 221 3,000 -600 Descending Potomac TRACON
07:27AM 39.0667 -76.5667 322° Northwest 141 162 2,500 -600 Descending Potomac TRACON
07:28AM 39.1000 -76.6000 322° Northwest 141 162 1,800 -780 Descending Potomac TRACON
07:29AM 39.1333 -76.6333 322° Northwest 132 152 1,000 -840 Descending Potomac TRACON